createdAt,value
2023-09-02T06:43:31.958Z,15.20
2023-09-02T06:45:58.619Z,15.20
2023-09-02T06:48:27.361Z,16.30
2023-09-02T06:50:55.782Z,14.30
2023-09-02T06:53:22.456Z,16.90
2023-09-02T06:55:49.101Z,15.50
2023-09-02T06:58:15.778Z,16.80
2023-09-02T07:00:42.477Z,15.80
2023-09-02T07:03:09.442Z,14.80
2023-09-02T07:05:36.146Z,16.00
2023-09-02T07:08:03.199Z,15.70
2023-09-02T07:10:29.873Z,16.10
2023-09-02T07:12:56.567Z,15.90
2023-09-02T07:15:23.205Z,15.90
2023-09-02T07:17:49.899Z,15.90
2023-09-02T07:20:16.645Z,16.10
2023-09-02T07:22:43.280Z,16.10
2023-09-02T07:25:09.924Z,16.20
2023-09-02T07:27:36.552Z,16.10
2023-09-02T07:30:03.319Z,16.30
2023-09-02T07:32:29.951Z,16.50
2023-09-02T07:34:56.663Z,16.60
2023-09-02T07:37:23.306Z,16.70
2023-09-02T07:39:50.004Z,16.70
2023-09-02T07:42:16.702Z,16.90
2023-09-02T07:44:43.342Z,16.90
2023-09-02T07:47:09.973Z,17.00
2023-09-02T07:49:36.649Z,17.10
2023-09-02T07:52:03.543Z,17.20
2023-09-02T07:54:30.180Z,17.20
2023-09-02T07:56:56.822Z,17.40
2023-09-02T07:59:23.507Z,17.80
2023-09-02T08:01:50.168Z,17.00
2023-09-02T08:04:16.832Z,17.80
2023-09-02T08:06:44.082Z,19.30
2023-09-02T08:09:10.662Z,17.80
2023-09-02T08:11:37.237Z,17.80
2023-09-02T08:16:30.807Z,17.90
2023-09-02T08:18:57.379Z,17.80
2023-09-02T08:21:23.988Z,17.80
2023-09-02T08:23:50.553Z,17.70
2023-09-02T08:26:17.167Z,17.60
2023-09-02T08:28:43.913Z,17.50
2023-09-02T08:31:12.652Z,17.60
2023-09-02T08:33:39.478Z,17.60
2023-09-02T08:36:06.047Z,17.50
2023-09-02T08:38:33.742Z,17.60
2023-09-02T08:41:02.899Z,17.60
2023-09-02T08:43:30.096Z,17.60
2023-09-02T08:46:00.646Z,17.60
2023-09-02T08:48:27.551Z,17.70
2023-09-02T08:50:54.729Z,17.80
2023-09-02T08:53:21.648Z,17.70
2023-09-02T08:55:49.488Z,17.80
2023-09-02T08:58:16.562Z,17.90
2023-09-02T09:00:43.519Z,18.00
2023-09-02T09:03:12.362Z,18.00
2023-09-02T09:05:43.374Z,18.10
2023-09-02T09:10:37.719Z,18.30
2023-09-02T09:13:11.390Z,18.10
2023-09-02T09:15:38.823Z,18.40
2023-09-02T09:18:05.993Z,18.40
2023-09-02T09:20:33.972Z,18.50
2023-09-02T09:36:57.472Z,18.80
2023-09-02T09:39:37.968Z,18.90
2023-09-02T09:42:04.945Z,18.70
2023-09-02T09:46:59.466Z,18.80
2023-09-02T10:19:48.446Z,19.60
2023-09-02T10:22:24.126Z,19.80
2023-09-02T10:24:59.880Z,19.50
2023-09-02T10:27:27.722Z,19.80
2023-09-02T10:29:57.199Z,19.90
2023-09-02T10:32:35.789Z,20.00
2023-09-02T10:35:08.949Z,20.00
2023-09-02T10:37:55.800Z,20.40
2023-09-02T10:40:26.305Z,20.50
2023-09-02T10:47:47.399Z,21.20
2023-09-02T11:00:12.485Z,22.40
2023-09-02T11:02:39.868Z,23.00
2023-09-02T11:05:09.309Z,23.90
2023-09-02T11:07:36.882Z,23.10
2023-09-02T11:10:04.209Z,23.30
2023-09-02T11:12:30.987Z,23.80
2023-09-02T11:15:10.003Z,23.80
2023-09-02T11:17:37.733Z,23.10
2023-09-02T11:20:05.931Z,23.30
2023-09-02T11:22:48.837Z,23.00
2023-09-02T11:35:03.693Z,23.80
2023-09-02T11:37:33.434Z,23.80
2023-09-02T11:40:12.323Z,23.10
2023-09-02T11:42:48.066Z,23.60
2023-09-02T11:45:15.082Z,22.60
2023-09-02T11:47:41.876Z,23.00
2023-09-02T11:50:12.210Z,23.00
2023-09-02T11:52:38.924Z,21.70
2023-09-02T11:57:32.567Z,24.80
2023-09-02T12:09:48.900Z,26.10
2023-09-02T12:12:18.479Z,26.20
2023-09-02T12:14:45.883Z,25.50
2023-09-02T12:17:12.882Z,25.50
2023-09-02T12:19:39.826Z,26.80
2023-09-02T12:22:06.920Z,26.90
2023-09-02T12:24:34.208Z,27.00
2023-09-02T12:29:27.999Z,28.00
2023-09-02T12:31:58.777Z,28.20
2023-09-02T12:34:35.407Z,28.70
2023-09-02T12:37:15.460Z,28.80
2023-09-02T12:39:42.084Z,28.50
